sensor_id;sensor_type;location;lat;lon;timestamp;pressure;altitude;pressure_sealevel;temperature;humidity
60246;BME280;46107;53.356;-1.524;2023-04-05T00:02:25;99467.51;;;9.26;38.32
60246;BME280;46107;53.356;-1.524;2023-04-05T00:04:52;99466.43;;;8.59;39.04
60246;BME280;46107;53.356;-1.524;2023-04-05T00:07:21;99463.42;;;8.59;39.56
60246;BME280;46107;53.356;-1.524;2023-04-05T00:09:48;99461.42;;;8.89;39.38
60246;BME280;46107;53.356;-1.524;2023-04-05T00:12:15;99459.65;;;10.03;37.49
60246;BME280;46107;53.356;-1.524;2023-04-05T00:14:44;99456.98;;;9.20;39.07
60246;BME280;46107;53.356;-1.524;2023-04-05T00:17:11;99452.06;;;9.13;38.85
60246;BME280;46107;53.356;-1.524;2023-04-05T00:19:39;99446.28;;;8.80;40.16
60246;BME280;46107;53.356;-1.524;2023-04-05T00:22:06;99445.10;;;8.22;41.16
60246;BME280;46107;53.356;-1.524;2023-04-05T00:24:34;99443.82;;;8.54;40.43
60246;BME280;46107;53.356;-1.524;2023-04-05T00:27:02;99442.60;;;8.84;40.90
60246;BME280;46107;53.356;-1.524;2023-04-05T00:29:29;99438.15;;;7.87;41.46
60246;BME280;46107;53.356;-1.524;2023-04-05T00:31:58;99435.42;;;8.05;42.47
60246;BME280;46107;53.356;-1.524;2023-04-05T00:34:25;99430.15;;;8.83;40.78
60246;BME280;46107;53.356;-1.524;2023-04-05T00:36:53;99426.61;;;8.22;42.48
60246;BME280;46107;53.356;-1.524;2023-04-05T00:39:21;99429.55;;;8.22;42.29
60246;BME280;46107;53.356;-1.524;2023-04-05T00:41:48;99435.68;;;7.30;43.47
60246;BME280;46107;53.356;-1.524;2023-04-05T00:44:16;99421.97;;;7.84;43.52
60246;BME280;46107;53.356;-1.524;2023-04-05T00:46:43;99420.13;;;7.70;42.68
60246;BME280;46107;53.356;-1.524;2023-04-05T00:49:11;99414.72;;;8.98;40.32
60246;BME280;46107;53.356;-1.524;2023-04-05T00:51:39;99415.07;;;9.21;40.08
60246;BME280;46107;53.356;-1.524;2023-04-05T00:54:06;99413.93;;;9.39;39.40
60246;BME280;46107;53.356;-1.524;2023-04-05T00:56:35;99415.55;;;9.75;39.86
60246;BME280;46107;53.356;-1.524;2023-04-05T00:59:03;99413.66;;;9.47;39.43
60246;BME280;46107;53.356;-1.524;2023-04-05T01:01:32;99411.25;;;8.89;40.64
60246;BME280;46107;53.356;-1.524;2023-04-05T01:04:03;99414.93;;;7.82;42.73
60246;BME280;46107;53.356;-1.524;2023-04-05T01:06:58;99410.40;;;8.45;41.30
60246;BME280;46107;53.356;-1.524;2023-04-05T01:09:36;99410.52;;;8.53;41.52
60246;BME280;46107;53.356;-1.524;2023-04-05T01:12:09;99416.29;;;8.60;41.90
60246;BME280;46107;53.356;-1.524;2023-04-05T01:14:45;99412.66;;;8.66;41.81
60246;BME280;46107;53.356;-1.524;2023-04-05T01:17:13;99403.68;;;9.02;40.34
60246;BME280;46107;53.356;-1.524;2023-04-05T01:19:41;99401.48;;;8.18;41.38
60246;BME280;46107;53.356;-1.524;2023-04-05T01:22:34;99398.97;;;8.34;41.03
60246;BME280;46107;53.356;-1.524;2023-04-05T01:25:28;99392.63;;;9.67;40.03
60246;BME280;46107;53.356;-1.524;2023-04-05T01:28:17;99384.35;;;8.67;40.18
60246;BME280;46107;53.356;-1.524;2023-04-05T01:30:53;99385.85;;;9.78;39.01
60246;BME280;46107;53.356;-1.524;2023-04-05T01:33:32;99384.55;;;9.48;39.54
60246;BME280;46107;53.356;-1.524;2023-04-05T01:36:07;99376.25;;;9.20;40.87
60246;BME280;46107;53.356;-1.524;2023-04-05T01:38:39;99372.82;;;8.21;42.61
60246;BME280;46107;53.356;-1.524;2023-04-05T01:41:07;99370.23;;;9.29;41.11
60246;BME280;46107;53.356;-1.524;2023-04-05T01:43:35;99363.39;;;8.09;42.85
60246;BME280;46107;53.356;-1.524;2023-04-05T01:46:03;99357.21;;;8.23;43.63
60246;BME280;46107;53.356;-1.524;2023-04-05T01:48:31;99358.52;;;7.49;45.73
60246;BME280;46107;53.356;-1.524;2023-04-05T01:50:58;99355.06;;;7.95;44.51
60246;BME280;46107;53.356;-1.524;2023-04-05T01:53:26;99350.52;;;8.69;44.04
60246;BME280;46107;53.356;-1.524;2023-04-05T01:55:59;99348.65;;;7.49;46.55
60246;BME280;46107;53.356;-1.524;2023-04-05T01:58:26;99346.71;;;8.71;44.20
60246;BME280;46107;53.356;-1.524;2023-04-05T02:00:54;99347.51;;;8.17;46.02
60246;BME280;46107;53.356;-1.524;2023-04-05T02:03:22;99346.57;;;8.58;44.87
60246;BME280;46107;53.356;-1.524;2023-04-05T02:05:49;99343.78;;;9.00;44.86
60246;BME280;46107;53.356;-1.524;2023-04-05T02:08:16;99342.28;;;8.94;45.08
60246;BME280;46107;53.356;-1.524;2023-04-05T02:10:44;99341.32;;;7.13;48.10
60246;BME280;46107;53.356;-1.524;2023-04-05T02:13:12;99343.89;;;8.68;46.93
60246;BME280;46107;53.356;-1.524;2023-04-05T02:15:41;99342.83;;;8.63;46.44
60246;BME280;46107;53.356;-1.524;2023-04-05T02:18:13;99344.61;;;8.47;46.92
60246;BME280;46107;53.356;-1.524;2023-04-05T02:20:41;99342.43;;;9.03;45.46
60246;BME280;46107;53.356;-1.524;2023-04-05T02:23:08;99341.74;;;8.98;45.06
60246;BME280;46107;53.356;-1.524;2023-04-05T02:25:36;99340.14;;;8.61;46.57
60246;BME280;46107;53.356;-1.524;2023-04-05T02:28:03;99339.58;;;8.64;45.86
60246;BME280;46107;53.356;-1.524;2023-04-05T02:30:31;99339.67;;;8.63;45.73
60246;BME280;46107;53.356;-1.524;2023-04-05T02:32:59;99334.78;;;8.93;45.86
60246;BME280;46107;53.356;-1.524;2023-04-05T02:35:27;99332.20;;;8.53;46.06
60246;BME280;46107;53.356;-1.524;2023-04-05T02:37:55;99333.61;;;8.57;45.86
60246;BME280;46107;53.356;-1.524;2023-04-05T02:40:23;99331.40;;;8.96;45.56
60246;BME280;46107;53.356;-1.524;2023-04-05T02:42:51;99326.10;;;9.34;44.65
60246;BME280;46107;53.356;-1.524;2023-04-05T02:45:19;99327.24;;;8.19;46.74
60246;BME280;46107;53.356;-1.524;2023-04-05T02:47:46;99326.23;;;7.85;47.46
60246;BME280;46107;53.356;-1.524;2023-04-05T02:50:14;99322.33;;;8.22;47.67
60246;BME280;46107;53.356;-1.524;2023-04-05T02:52:42;99322.35;;;8.25;47.05
60246;BME280;46107;53.356;-1.524;2023-04-05T02:55:10;99318.20;;;8.52;46.10
60246;BME280;46107;53.356;-1.524;2023-04-05T02:57:38;99320.21;;;8.96;45.33
60246;BME280;46107;53.356;-1.524;2023-04-05T03:00:06;99319.28;;;8.28;46.75
60246;BME280;46107;53.356;-1.524;2023-04-05T03:02:34;99317.09;;;8.08;46.11
60246;BME280;46107;53.356;-1.524;2023-04-05T03:05:02;99316.18;;;7.67;47.19
60246;BME280;46107;53.356;-1.524;2023-04-05T03:07:29;99310.06;;;8.13;46.80
60246;BME280;46107;53.356;-1.524;2023-04-05T03:09:57;99306.52;;;8.31;46.19
60246;BME280;46107;53.356;-1.524;2023-04-05T03:12:25;99301.27;;;8.69;45.63
60246;BME280;46107;53.356;-1.524;2023-04-05T03:14:53;99300.88;;;8.25;45.74
60246;BME280;46107;53.356;-1.524;2023-04-05T03:17:21;99295.73;;;7.83;47.59
60246;BME280;46107;53.356;-1.524;2023-04-05T03:19:48;99292.93;;;8.18;46.87
60246;BME280;46107;53.356;-1.524;2023-04-05T03:22:15;99290.50;;;7.82;47.12
60246;BME280;46107;53.356;-1.524;2023-04-05T03:24:43;99292.54;;;7.25;48.84
60246;BME280;46107;53.356;-1.524;2023-04-05T03:27:10;99292.82;;;7.11;48.49
60246;BME280;46107;53.356;-1.524;2023-04-05T03:29:38;99295.11;;;7.80;47.24
60246;BME280;46107;53.356;-1.524;2023-04-05T03:32:07;99294.04;;;8.15;47.11
60246;BME280;46107;53.356;-1.524;2023-04-05T03:34:35;99291.10;;;7.96;47.78
60246;BME280;46107;53.356;-1.524;2023-04-05T03:37:03;99293.05;;;7.58;48.65
60246;BME280;46107;53.356;-1.524;2023-04-05T03:39:31;99291.95;;;7.66;48.18
60246;BME280;46107;53.356;-1.524;2023-04-05T03:41:59;99293.76;;;7.21;51.29
60246;BME280;46107;53.356;-1.524;2023-04-05T03:44:26;99287.77;;;7.00;51.24
60246;BME280;46107;53.356;-1.524;2023-04-05T03:46:54;99288.59;;;6.77;51.81
60246;BME280;46107;53.356;-1.524;2023-04-05T03:49:22;99287.87;;;7.23;52.20
60246;BME280;46107;53.356;-1.524;2023-04-05T03:51:50;99281.53;;;6.95;52.44
60246;BME280;46107;53.356;-1.524;2023-04-05T03:54:17;99280.84;;;7.05;52.73
60246;BME280;46107;53.356;-1.524;2023-04-05T03:56:45;99277.09;;;7.71;51.10
60246;BME280;46107;53.356;-1.524;2023-04-05T03:59:12;99279.38;;;7.35;51.14
60246;BME280;46107;53.356;-1.524;2023-04-05T04:01:40;99278.20;;;7.14;52.31
60246;BME280;46107;53.356;-1.524;2023-04-05T04:04:08;99272.48;;;7.69;51.17
60246;BME280;46107;53.356;-1.524;2023-04-05T04:06:37;99274.15;;;8.12;50.17
60246;BME280;46107;53.356;-1.524;2023-04-05T04:09:04;99267.42;;;7.50;50.50
60246;BME280;46107;53.356;-1.524;2023-04-05T04:11:31;99267.44;;;7.80;50.38
60246;BME280;46107;53.356;-1.524;2023-04-05T04:13:58;99266.88;;;7.80;50.51
60246;BME280;46107;53.356;-1.524;2023-04-05T04:16:26;99264.10;;;7.39;50.67
60246;BME280;46107;53.356;-1.524;2023-04-05T04:18:54;99264.17;;;8.18;49.85
60246;BME280;46107;53.356;-1.524;2023-04-05T04:21:21;99265.70;;;8.04;50.45
60246;BME280;46107;53.356;-1.524;2023-04-05T04:23:50;99262.06;;;8.38;49.95
60246;BME280;46107;53.356;-1.524;2023-04-05T04:26:18;99256.17;;;8.10;50.19
60246;BME280;46107;53.356;-1.524;2023-04-05T04:28:45;99254.37;;;7.45;51.60
60246;BME280;46107;53.356;-1.524;2023-04-05T04:31:13;99246.18;;;7.87;50.27
60246;BME280;46107;53.356;-1.524;2023-04-05T04:33:40;99248.14;;;7.95;50.50
60246;BME280;46107;53.356;-1.524;2023-04-05T04:36:09;99248.38;;;7.50;51.06
60246;BME280;46107;53.356;-1.524;2023-04-05T04:38:35;99247.48;;;8.16;50.95
60246;BME280;46107;53.356;-1.524;2023-04-05T04:41:06;99247.57;;;8.03;51.79
60246;BME280;46107;53.356;-1.524;2023-04-05T04:43:34;99246.68;;;8.43;49.84
60246;BME280;46107;53.356;-1.524;2023-04-05T04:46:02;99242.56;;;8.14;50.34
60246;BME280;46107;53.356;-1.524;2023-04-05T04:48:29;99240.59;;;7.66;51.71
60246;BME280;46107;53.356;-1.524;2023-04-05T04:50:57;99239.98;;;7.30;53.24
60246;BME280;46107;53.356;-1.524;2023-04-05T04:53:31;99237.75;;;7.95;52.13
60246;BME280;46107;53.356;-1.524;2023-04-05T04:55:58;99232.14;;;8.31;51.05
60246;BME280;46107;53.356;-1.524;2023-04-05T04:58:25;99232.19;;;7.86;51.95
60246;BME280;46107;53.356;-1.524;2023-04-05T05:00:53;99237.84;;;8.41;50.89
60246;BME280;46107;53.356;-1.524;2023-04-05T05:03:20;99233.66;;;7.98;51.64
60246;BME280;46107;53.356;-1.524;2023-04-05T05:05:49;99238.78;;;6.87;54.52
60246;BME280;46107;53.356;-1.524;2023-04-05T05:08:17;99236.40;;;7.59;53.82
60246;BME280;46107;53.356;-1.524;2023-04-05T05:10:44;99231.67;;;7.62;53.71
60246;BME280;46107;53.356;-1.524;2023-04-05T05:13:12;99229.41;;;6.98;55.40
60246;BME280;46107;53.356;-1.524;2023-04-05T05:15:40;99232.38;;;7.80;54.67
60246;BME280;46107;53.356;-1.524;2023-04-05T05:18:08;99227.69;;;7.25;54.75
60246;BME280;46107;53.356;-1.524;2023-04-05T05:20:36;99224.82;;;6.36;58.33
60246;BME280;46107;53.356;-1.524;2023-04-05T05:23:04;99224.44;;;6.96;56.91
60246;BME280;46107;53.356;-1.524;2023-04-05T05:25:31;99222.99;;;7.52;55.96
60246;BME280;46107;53.356;-1.524;2023-04-05T05:27:58;99215.99;;;7.31;56.54
60246;BME280;46107;53.356;-1.524;2023-04-05T05:30:27;99214.51;;;6.62;57.27
60246;BME280;46107;53.356;-1.524;2023-04-05T05:32:55;99213.52;;;7.20;58.62
60246;BME280;46107;53.356;-1.524;2023-04-05T05:35:22;99211.14;;;7.71;56.09
60246;BME280;46107;53.356;-1.524;2023-04-05T05:37:50;99211.26;;;7.41;56.47
60246;BME280;46107;53.356;-1.524;2023-04-05T05:40:17;99209.30;;;7.07;57.82
60246;BME280;46107;53.356;-1.524;2023-04-05T05:42:46;99212.23;;;7.58;57.22
60246;BME280;46107;53.356;-1.524;2023-04-05T05:45:13;99213.43;;;6.51;61.03
60246;BME280;46107;53.356;-1.524;2023-04-05T05:47:41;99213.77;;;7.25;59.26
60246;BME280;46107;53.356;-1.524;2023-04-05T05:50:09;99209.18;;;6.57;60.06
60246;BME280;46107;53.356;-1.524;2023-04-05T05:52:36;99213.47;;;7.49;59.15
60246;BME280;46107;53.356;-1.524;2023-04-05T05:55:05;99215.75;;;7.83;57.71
60246;BME280;46107;53.356;-1.524;2023-04-05T05:57:33;99211.78;;;6.91;59.89
60246;BME280;46107;53.356;-1.524;2023-04-05T06:00:01;99210.65;;;6.74;60.86
60246;BME280;46107;53.356;-1.524;2023-04-05T06:02:28;99209.77;;;7.71;59.38
60246;BME280;46107;53.356;-1.524;2023-04-05T06:04:56;99210.76;;;7.38;59.20
60246;BME280;46107;53.356;-1.524;2023-04-05T06:07:28;99206.03;;;7.75;58.73
60246;BME280;46107;53.356;-1.524;2023-04-05T06:09:56;99203.36;;;6.68;61.34
60246;BME280;46107;53.356;-1.524;2023-04-05T06:12:25;99208.75;;;6.25;64.27
60246;BME280;46107;53.356;-1.524;2023-04-05T06:14:53;99205.28;;;5.88;63.86
60246;BME280;46107;53.356;-1.524;2023-04-05T06:17:20;99200.46;;;6.63;62.87
60246;BME280;46107;53.356;-1.524;2023-04-05T06:19:48;99196.72;;;6.22;63.01
60246;BME280;46107;53.356;-1.524;2023-04-05T06:22:15;99195.81;;;7.68;59.54
60246;BME280;46107;53.356;-1.524;2023-04-05T06:24:42;99194.44;;;7.81;59.28
60246;BME280;46107;53.356;-1.524;2023-04-05T06:27:10;99192.92;;;6.95;60.32
60246;BME280;46107;53.356;-1.524;2023-04-05T06:29:37;99192.71;;;8.03;57.82
60246;BME280;46107;53.356;-1.524;2023-04-05T06:32:05;99196.96;;;8.03;57.14
60246;BME280;46107;53.356;-1.524;2023-04-05T06:34:33;99196.09;;;7.84;57.62
60246;BME280;46107;53.356;-1.524;2023-04-05T06:37:00;99196.63;;;7.53;58.81
60246;BME280;46107;53.356;-1.524;2023-04-05T06:39:27;99195.62;;;7.57;59.20
60246;BME280;46107;53.356;-1.524;2023-04-05T06:41:56;99198.06;;;7.57;58.57
60246;BME280;46107;53.356;-1.524;2023-04-05T06:44:23;99194.43;;;8.06;57.40
60246;BME280;46107;53.356;-1.524;2023-04-05T06:46:51;99198.20;;;7.27;59.30
60246;BME280;46107;53.356;-1.524;2023-04-05T06:49:18;99194.19;;;8.23;58.10
60246;BME280;46107;53.356;-1.524;2023-04-05T06:51:46;99193.71;;;8.21;57.37
60246;BME280;46107;53.356;-1.524;2023-04-05T06:54:15;99192.97;;;8.06;56.55
60246;BME280;46107;53.356;-1.524;2023-04-05T06:56:43;99193.83;;;8.44;55.62
60246;BME280;46107;53.356;-1.524;2023-04-05T06:59:10;99197.52;;;8.28;56.33
60246;BME280;46107;53.356;-1.524;2023-04-05T07:01:37;99195.94;;;7.96;57.60
60246;BME280;46107;53.356;-1.524;2023-04-05T07:04:05;99192.36;;;7.67;58.24
60246;BME280;46107;53.356;-1.524;2023-04-05T07:06:32;99188.89;;;7.00;61.80
60246;BME280;46107;53.356;-1.524;2023-04-05T07:09:01;99192.92;;;7.72;59.80
60246;BME280;46107;53.356;-1.524;2023-04-05T07:11:28;99194.47;;;8.19;59.65
60246;BME280;46107;53.356;-1.524;2023-04-05T07:13:56;99196.17;;;8.14;59.11
60246;BME280;46107;53.356;-1.524;2023-04-05T07:16:23;99202.03;;;8.20;57.94
60246;BME280;46107;53.356;-1.524;2023-04-05T07:18:50;99199.64;;;7.93;58.08
60246;BME280;46107;53.356;-1.524;2023-04-05T07:21:18;99201.38;;;7.54;59.18
60246;BME280;46107;53.356;-1.524;2023-04-05T07:23:46;99202.04;;;7.01;61.66
60246;BME280;46107;53.356;-1.524;2023-04-05T07:26:13;99201.21;;;7.42;62.00
60246;BME280;46107;53.356;-1.524;2023-04-05T07:28:41;99196.82;;;8.06;59.93
60246;BME280;46107;53.356;-1.524;2023-04-05T07:31:09;99196.16;;;6.51;65.31
60246;BME280;46107;53.356;-1.524;2023-04-05T07:33:36;99191.26;;;7.50;61.52
60246;BME280;46107;53.356;-1.524;2023-04-05T07:36:04;99192.40;;;6.71;62.53
60246;BME280;46107;53.356;-1.524;2023-04-05T07:38:32;99192.66;;;7.44;62.22
60246;BME280;46107;53.356;-1.524;2023-04-05T07:41:00;99189.42;;;8.13;60.54
60246;BME280;46107;53.356;-1.524;2023-04-05T07:43:27;99188.33;;;7.19;63.02
60246;BME280;46107;53.356;-1.524;2023-04-05T07:46:01;99193.05;;;7.52;62.67
60246;BME280;46107;53.356;-1.524;2023-04-05T07:48:29;99189.17;;;7.13;64.72
60246;BME280;46107;53.356;-1.524;2023-04-05T07:51:03;99193.95;;;7.52;63.02
60246;BME280;46107;53.356;-1.524;2023-04-05T07:53:30;99191.68;;;7.44;63.33
60246;BME280;46107;53.356;-1.524;2023-04-05T07:55:58;99191.26;;;7.62;63.36
60246;BME280;46107;53.356;-1.524;2023-04-05T07:58:26;99194.57;;;8.58;61.84
60246;BME280;46107;53.356;-1.524;2023-04-05T08:00:58;99196.58;;;6.75;66.45
60246;BME280;46107;53.356;-1.524;2023-04-05T08:03:26;99195.81;;;7.99;63.54
60246;BME280;46107;53.356;-1.524;2023-04-05T08:05:53;99200.02;;;7.48;64.86
60246;BME280;46107;53.356;-1.524;2023-04-05T08:08:22;99203.20;;;7.26;65.49
60246;BME280;46107;53.356;-1.524;2023-04-05T08:10:50;99201.27;;;7.31;66.05
60246;BME280;46107;53.356;-1.524;2023-04-05T08:13:18;99200.07;;;7.19;66.21
60246;BME280;46107;53.356;-1.524;2023-04-05T08:15:45;99199.87;;;7.54;66.00
60246;BME280;46107;53.356;-1.524;2023-04-05T08:18:13;99194.95;;;7.65;64.81
60246;BME280;46107;53.356;-1.524;2023-04-05T08:20:40;99190.69;;;8.21;64.61
60246;BME280;46107;53.356;-1.524;2023-04-05T08:23:08;99191.75;;;7.94;63.38
60246;BME280;46107;53.356;-1.524;2023-04-05T08:25:35;99185.91;;;9.15;59.89
60246;BME280;46107;53.356;-1.524;2023-04-05T08:28:07;99189.80;;;8.78;61.36
60246;BME280;46107;53.356;-1.524;2023-04-05T08:30:35;99192.37;;;7.59;64.55
60246;BME280;46107;53.356;-1.524;2023-04-05T08:33:03;99188.28;;;8.91;62.77
60246;BME280;46107;53.356;-1.524;2023-04-05T08:35:30;99185.74;;;8.41;62.27
60246;BME280;46107;53.356;-1.524;2023-04-05T08:37:58;99184.42;;;8.35;60.86
60246;BME280;46107;53.356;-1.524;2023-04-05T08:40:38;99181.68;;;9.06;59.88
60246;BME280;46107;53.356;-1.524;2023-04-05T08:43:12;99186.36;;;8.82;61.02
60246;BME280;46107;53.356;-1.524;2023-04-05T08:45:46;99181.42;;;8.84;62.29
60246;BME280;46107;53.356;-1.524;2023-04-05T08:48:16;99182.54;;;7.57;64.99
60246;BME280;46107;53.356;-1.524;2023-04-05T08:50:49;99178.49;;;8.85;63.05
60246;BME280;46107;53.356;-1.524;2023-04-05T08:53:17;99177.67;;;7.68;64.15
60246;BME280;46107;53.356;-1.524;2023-04-05T08:55:48;99172.07;;;8.36;62.58
60246;BME280;46107;53.356;-1.524;2023-04-05T08:58:17;99175.70;;;7.72;64.65
60246;BME280;46107;53.356;-1.524;2023-04-05T09:00:47;99174.56;;;8.32;64.70
60246;BME280;46107;53.356;-1.524;2023-04-05T09:03:20;99169.78;;;9.14;62.80
60246;BME280;46107;53.356;-1.524;2023-04-05T09:05:51;99168.39;;;9.36;60.15
60246;BME280;46107;53.356;-1.524;2023-04-05T09:08:18;99166.25;;;8.67;61.90
60246;BME280;46107;53.356;-1.524;2023-04-05T09:10:48;99163.99;;;8.68;62.55
60246;BME280;46107;53.356;-1.524;2023-04-05T09:13:17;99164.71;;;8.11;62.83
60246;BME280;46107;53.356;-1.524;2023-04-05T09:15:45;99163.46;;;8.79;64.72
60246;BME280;46107;53.356;-1.524;2023-04-05T09:18:13;99160.60;;;8.32;63.45
60246;BME280;46107;53.356;-1.524;2023-04-05T09:20:40;99160.56;;;7.53;66.25
60246;BME280;46107;53.356;-1.524;2023-04-05T09:23:08;99162.09;;;8.22;65.97
60246;BME280;46107;53.356;-1.524;2023-04-05T09:25:37;99158.64;;;8.44;66.16
60246;BME280;46107;53.356;-1.524;2023-04-05T09:28:06;99158.51;;;8.87;65.46
60246;BME280;46107;53.356;-1.524;2023-04-05T09:30:34;99158.64;;;8.54;66.01
60246;BME280;46107;53.356;-1.524;2023-04-05T09:33:03;99161.33;;;9.78;62.67
60246;BME280;46107;53.356;-1.524;2023-04-05T09:35:36;99157.16;;;8.94;66.73
60246;BME280;46107;53.356;-1.524;2023-04-05T09:38:04;99160.62;;;7.16;69.51
60246;BME280;46107;53.356;-1.524;2023-04-05T09:40:43;99156.29;;;7.46;68.87
60246;BME280;46107;53.356;-1.524;2023-04-05T09:43:11;99151.91;;;8.50;67.54
60246;BME280;46107;53.356;-1.524;2023-04-05T09:45:40;99152.58;;;8.54;65.70
60246;BME280;46107;53.356;-1.524;2023-04-05T09:48:08;99150.94;;;7.70;70.45
60246;BME280;46107;53.356;-1.524;2023-04-05T09:50:36;99150.90;;;8.46;67.75
60246;BME280;46107;53.356;-1.524;2023-04-05T09:53:07;99150.52;;;9.10;65.10
60246;BME280;46107;53.356;-1.524;2023-04-05T09:55:35;99152.84;;;8.02;68.62
60246;BME280;46107;53.356;-1.524;2023-04-05T09:58:02;99147.76;;;8.73;67.64
60246;BME280;46107;53.356;-1.524;2023-04-05T10:00:30;99150.75;;;8.96;66.21
60246;BME280;46107;53.356;-1.524;2023-04-05T10:02:58;99153.51;;;8.21;69.46
60246;BME280;46107;53.356;-1.524;2023-04-05T10:05:27;99151.63;;;9.16;68.14
60246;BME280;46107;53.356;-1.524;2023-04-05T10:07:55;99154.22;;;7.74;71.28
60246;BME280;46107;53.356;-1.524;2023-04-05T10:10:23;99156.89;;;8.48;68.79
60246;BME280;46107;53.356;-1.524;2023-04-05T10:12:52;99155.96;;;8.46;70.98
60246;BME280;46107;53.356;-1.524;2023-04-05T10:15:21;99155.98;;;8.63;68.53
60246;BME280;46107;53.356;-1.524;2023-04-05T10:17:52;99156.12;;;7.77;70.94
60246;BME280;46107;53.356;-1.524;2023-04-05T10:20:23;99152.79;;;8.69;67.47
60246;BME280;46107;53.356;-1.524;2023-04-05T10:23:00;99154.45;;;9.40;65.63
60246;BME280;46107;53.356;-1.524;2023-04-05T10:25:44;99151.51;;;8.92;66.64
60246;BME280;46107;53.356;-1.524;2023-04-05T10:28:20;99149.24;;;8.66;68.68
60246;BME280;46107;53.356;-1.524;2023-04-05T10:30:54;99151.16;;;9.05;67.55
60246;BME280;46107;53.356;-1.524;2023-04-05T10:33:29;99147.84;;;9.09;66.87
60246;BME280;46107;53.356;-1.524;2023-04-05T10:36:15;99148.40;;;8.08;70.97
60246;BME280;46107;53.356;-1.524;2023-04-05T10:38:55;99145.42;;;8.33;71.58
60246;BME280;46107;53.356;-1.524;2023-04-05T10:41:34;99143.48;;;8.73;69.23
60246;BME280;46107;53.356;-1.524;2023-04-05T10:44:03;99140.45;;;8.69;69.31
60246;BME280;46107;53.356;-1.524;2023-04-05T10:46:31;99138.51;;;8.20;71.61
60246;BME280;46107;53.356;-1.524;2023-04-05T10:49:03;99139.93;;;8.50;70.71
60246;BME280;46107;53.356;-1.524;2023-04-05T10:51:34;99136.66;;;9.16;69.54
60246;BME280;46107;53.356;-1.524;2023-04-05T10:54:02;99134.92;;;8.64;71.28
60246;BME280;46107;53.356;-1.524;2023-04-05T10:56:31;99135.86;;;8.47;72.36
60246;BME280;46107;53.356;-1.524;2023-04-05T10:59:00;99134.94;;;8.59;70.81
60246;BME280;46107;53.356;-1.524;2023-04-05T11:01:28;99134.33;;;8.92;69.72
60246;BME280;46107;53.356;-1.524;2023-04-05T11:04:10;99132.00;;;8.26;71.46
60246;BME280;46107;53.356;-1.524;2023-04-05T11:06:38;99131.43;;;9.10;69.38
60246;BME280;46107;53.356;-1.524;2023-04-05T11:09:11;99124.64;;;7.92;74.01
60246;BME280;46107;53.356;-1.524;2023-04-05T11:11:42;99126.14;;;7.57;77.59
60246;BME280;46107;53.356;-1.524;2023-04-05T11:14:35;99124.29;;;7.14;77.08
60246;BME280;46107;53.356;-1.524;2023-04-05T11:17:23;99122.30;;;8.86;71.74
60246;BME280;46107;53.356;-1.524;2023-04-05T11:19:52;99125.14;;;7.44;76.40
60246;BME280;46107;53.356;-1.524;2023-04-05T11:22:27;99122.82;;;8.66;73.30
60246;BME280;46107;53.356;-1.524;2023-04-05T11:24:56;99118.74;;;8.40;74.29
60246;BME280;46107;53.356;-1.524;2023-04-05T11:27:25;99116.62;;;8.77;73.25
60246;BME280;46107;53.356;-1.524;2023-04-05T11:29:53;99111.58;;;8.43;73.96
60246;BME280;46107;53.356;-1.524;2023-04-05T11:32:23;99108.35;;;8.76;72.26
60246;BME280;46107;53.356;-1.524;2023-04-05T11:34:59;99107.25;;;8.51;73.72
60246;BME280;46107;53.356;-1.524;2023-04-05T11:38:06;99108.81;;;9.17;71.38
60246;BME280;46107;53.356;-1.524;2023-04-05T11:40:36;99109.49;;;8.96;72.10
60246;BME280;46107;53.356;-1.524;2023-04-05T11:43:05;99105.61;;;8.15;75.20
60246;BME280;46107;53.356;-1.524;2023-04-05T11:45:35;99106.36;;;8.05;75.59
60246;BME280;46107;53.356;-1.524;2023-04-05T11:48:05;99103.10;;;8.74;73.51
60246;BME280;46107;53.356;-1.524;2023-04-05T11:50:35;99099.57;;;8.91;71.08
60246;BME280;46107;53.356;-1.524;2023-04-05T11:53:11;99093.90;;;8.28;74.07
60246;BME280;46107;53.356;-1.524;2023-04-05T11:55:40;99096.78;;;9.24;71.48
60246;BME280;46107;53.356;-1.524;2023-04-05T11:58:16;99097.03;;;8.65;74.01
60246;BME280;46107;53.356;-1.524;2023-04-05T12:00:46;99097.27;;;9.65;70.55
60246;BME280;46107;53.356;-1.524;2023-04-05T12:03:15;99091.75;;;10.04;68.19
60246;BME280;46107;53.356;-1.524;2023-04-05T12:05:47;99097.23;;;9.83;69.76
60246;BME280;46107;53.356;-1.524;2023-04-05T12:08:15;99092.65;;;9.11;69.94
60246;BME280;46107;53.356;-1.524;2023-04-05T12:10:54;99089.42;;;9.10;71.18
60246;BME280;46107;53.356;-1.524;2023-04-05T12:13:45;99086.39;;;8.03;75.03
60246;BME280;46107;53.356;-1.524;2023-04-05T12:16:13;99089.61;;;8.65;73.31
60246;BME280;46107;53.356;-1.524;2023-04-05T12:18:40;99083.91;;;9.15;72.39
60246;BME280;46107;53.356;-1.524;2023-04-05T12:21:09;99079.35;;;8.57;74.01
60246;BME280;46107;53.356;-1.524;2023-04-05T12:23:37;99081.84;;;8.90;72.77
60246;BME280;46107;53.356;-1.524;2023-04-05T12:26:06;99080.94;;;8.96;72.37
60246;BME280;46107;53.356;-1.524;2023-04-05T12:28:51;99077.39;;;8.95;72.27
60246;BME280;46107;53.356;-1.524;2023-04-05T12:31:36;99077.21;;;8.47;72.38
60246;BME280;46107;53.356;-1.524;2023-04-05T12:34:04;99072.00;;;8.02;75.42
60246;BME280;46107;53.356;-1.524;2023-04-05T12:36:33;99073.29;;;8.71;76.69
60246;BME280;46107;53.356;-1.524;2023-04-05T12:39:04;99075.23;;;8.53;73.83
60246;BME280;46107;53.356;-1.524;2023-04-05T12:41:32;99069.19;;;7.99;74.61
60246;BME280;46107;53.356;-1.524;2023-04-05T12:44:04;99069.57;;;7.40;77.75
60246;BME280;46107;53.356;-1.524;2023-04-05T12:46:40;99071.05;;;7.40;77.95
60246;BME280;46107;53.356;-1.524;2023-04-05T12:49:10;99071.65;;;8.87;73.84
60246;BME280;46107;53.356;-1.524;2023-04-05T12:51:41;99067.31;;;8.83;73.20
60246;BME280;46107;53.356;-1.524;2023-04-05T12:54:11;99064.29;;;7.91;78.50
60246;BME280;46107;53.356;-1.524;2023-04-05T12:56:39;99062.96;;;8.19;76.04
60246;BME280;46107;53.356;-1.524;2023-04-05T12:59:07;99058.23;;;8.55;76.73
60246;BME280;46107;53.356;-1.524;2023-04-05T13:01:35;99058.71;;;8.52;77.08
60246;BME280;46107;53.356;-1.524;2023-04-05T13:04:03;99056.95;;;8.19;75.27
60246;BME280;46107;53.356;-1.524;2023-04-05T13:06:31;99056.08;;;8.69;75.31
60246;BME280;46107;53.356;-1.524;2023-04-05T13:08:58;99054.89;;;8.62;73.70
60246;BME280;46107;53.356;-1.524;2023-04-05T13:11:26;99054.02;;;9.09;73.49
60246;BME280;46107;53.356;-1.524;2023-04-05T13:13:54;99051.93;;;8.42;74.81